createdAt,value
2022-09-25T00:01:15.502Z,21.30
2022-09-25T00:03:42.662Z,19.20
2022-09-25T00:06:14.003Z,19.60
2022-09-25T00:08:41.620Z,20.80
2022-09-25T00:11:15.256Z,20.05
2022-09-25T00:13:43.303Z,20.23
2022-09-25T00:16:14.026Z,19.20
2022-09-25T00:18:59.873Z,20.33
2022-09-25T00:24:05.864Z,17.60
2022-09-25T00:26:36.774Z,18.92
2022-09-25T00:29:05.335Z,19.00
2022-09-25T00:31:33.250Z,18.55
2022-09-25T00:34:03.378Z,18.67
2022-09-25T00:36:31.786Z,18.67
2022-09-25T00:38:59.379Z,20.52
2022-09-25T00:41:29.334Z,18.83
2022-09-25T00:43:57.954Z,19.15
2022-09-25T00:46:28.685Z,20.13
2022-09-25T00:48:59.918Z,19.67
2022-09-25T00:51:35.239Z,17.38
2022-09-25T00:56:41.630Z,18.10
2022-09-25T00:59:13.468Z,18.70
2022-09-25T01:01:40.885Z,19.60
2022-09-25T01:04:09.461Z,19.95
2022-09-25T01:06:37.288Z,21.92
2022-09-25T01:09:04.983Z,21.95
2022-09-25T01:11:32.573Z,20.40
2022-09-25T01:14:03.161Z,21.52
2022-09-25T01:16:43.472Z,21.23
2022-09-25T01:19:19.562Z,18.95
2022-09-25T01:22:26.807Z,19.75
2022-09-25T01:25:16.362Z,20.30
2022-09-25T01:27:58.873Z,21.83
2022-09-25T01:30:26.073Z,18.80
2022-09-25T01:33:11.569Z,19.52
2022-09-25T01:36:08.198Z,21.73
2022-09-25T01:38:45.782Z,18.90
2022-09-25T01:41:29.841Z,20.48
2022-09-25T01:44:18.470Z,20.90
2022-09-25T01:46:50.373Z,20.42
2022-09-25T01:49:28.674Z,21.45
2022-09-25T01:51:58.081Z,21.23
2022-09-25T01:54:33.032Z,23.92
2022-09-25T01:57:08.227Z,21.23
2022-09-25T01:59:50.476Z,23.65
2022-09-25T02:02:23.284Z,22.38
2022-09-25T02:05:00.606Z,23.75
2022-09-25T02:07:32.314Z,23.15
2022-09-25T02:10:08.722Z,21.75
2022-09-25T02:12:44.103Z,21.98
2022-09-25T02:18:17.908Z,21.92
2022-09-25T02:20:50.596Z,21.42
2022-09-25T02:23:30.337Z,22.42
2022-09-25T02:26:15.245Z,23.80
2022-09-25T02:28:44.990Z,24.23
2022-09-25T02:31:14.130Z,23.10
2022-09-25T02:33:41.683Z,24.13
2022-09-25T02:36:17.692Z,24.17
2022-09-25T02:38:45.303Z,23.90
2022-09-25T02:41:32.572Z,24.38
2022-09-25T02:44:27.076Z,26.15
2022-09-25T02:47:45.062Z,27.30
2022-09-25T02:50:28.185Z,25.83
2022-09-25T02:53:22.078Z,26.33
2022-09-25T02:56:00.877Z,28.33
2022-09-25T02:58:39.862Z,27.15
2022-09-25T03:01:10.837Z,26.30
2022-09-25T03:03:39.749Z,26.70
2022-09-25T03:06:09.064Z,23.88
2022-09-25T03:08:39.860Z,28.75
2022-09-25T03:11:09.439Z,25.30
2022-09-25T03:13:38.019Z,25.73
2022-09-25T03:16:39.714Z,24.10
2022-09-25T03:19:07.716Z,26.95
2022-09-25T03:21:34.910Z,29.63
2022-09-25T03:24:02.441Z,26.38
2022-09-25T03:26:30.528Z,29.13
2022-09-25T03:29:02.782Z,27.52
2022-09-25T03:31:31.134Z,26.77
2022-09-25T03:33:59.112Z,28.67
2022-09-25T03:36:29.370Z,27.63
2022-09-25T03:39:00.910Z,27.08
2022-09-25T03:41:31.178Z,25.55
2022-09-25T03:43:59.210Z,26.40
2022-09-25T03:46:28.914Z,26.05
2022-09-25T03:48:57.415Z,24.77
2022-09-25T03:51:26.318Z,26.10
2022-09-25T03:53:54.824Z,24.30
2022-09-25T03:56:25.470Z,26.52
2022-09-25T03:58:54.731Z,24.88
2022-09-25T04:01:23.516Z,26.33
2022-09-25T04:03:51.425Z,24.77
2022-09-25T04:06:21.225Z,24.90
2022-09-25T04:08:49.487Z,23.00
2022-09-25T04:11:18.775Z,22.77
2022-09-25T04:13:46.682Z,24.50
2022-09-25T04:16:16.441Z,22.85
2022-09-25T04:18:44.367Z,21.40
2022-09-25T04:21:14.461Z,22.20
2022-09-25T04:23:42.303Z,23.98
2022-09-25T04:26:10.178Z,21.10
2022-09-25T04:28:37.824Z,24.70
2022-09-25T04:31:06.081Z,26.13
2022-09-25T04:33:48.457Z,27.02
2022-09-25T04:36:21.598Z,23.90
2022-09-25T04:38:49.125Z,22.90
2022-09-25T04:41:18.046Z,22.75
2022-09-25T04:43:45.618Z,23.13
2022-09-25T04:46:20.125Z,22.52
2022-09-25T04:48:49.426Z,23.85
2022-09-25T04:51:16.703Z,24.65
2022-09-25T04:53:44.046Z,21.85
2022-09-25T04:56:15.407Z,23.58
2022-09-25T04:58:49.990Z,24.48
2022-09-25T05:01:19.756Z,22.98
2022-09-25T05:03:51.543Z,24.85
2022-09-25T05:06:18.944Z,22.52
2022-09-25T05:08:53.350Z,22.40
2022-09-25T05:11:21.727Z,24.45
2022-09-25T05:13:53.338Z,23.52
2022-09-25T05:16:21.011Z,21.58
2022-09-25T05:18:48.591Z,21.83
2022-09-25T05:21:15.823Z,22.08
2022-09-25T05:23:43.007Z,22.73
2022-09-25T05:26:11.351Z,23.67
2022-09-25T05:28:38.784Z,19.40
2022-09-25T05:31:06.807Z,23.77
2022-09-25T05:33:35.527Z,22.65
2022-09-25T05:36:07.569Z,22.50
2022-09-25T05:38:36.422Z,21.75
2022-09-25T05:41:05.488Z,21.48
2022-09-25T05:43:33.608Z,21.95
2022-09-25T05:46:01.280Z,22.20
2022-09-25T05:48:28.615Z,22.30
2022-09-25T05:50:57.371Z,25.00
2022-09-25T05:53:25.963Z,23.10
2022-09-25T05:56:01.121Z,22.30
2022-09-25T05:58:30.197Z,20.05
2022-09-25T06:01:02.354Z,18.75
2022-09-25T06:03:30.064Z,21.73
2022-09-25T06:06:01.412Z,20.60
2022-09-25T06:08:32.257Z,19.10
2022-09-25T06:11:01.158Z,20.27
2022-09-25T06:13:29.438Z,18.42
2022-09-25T06:15:57.453Z,20.42
2022-09-25T06:18:25.997Z,20.65
2022-09-25T06:21:01.125Z,23.02
2022-09-25T06:23:28.437Z,21.77
2022-09-25T06:25:56.666Z,25.90
2022-09-25T06:28:23.703Z,23.35
2022-09-25T06:30:51.122Z,21.90
2022-09-25T06:33:18.202Z,22.70
2022-09-25T06:35:48.037Z,22.42
2022-09-25T06:38:16.974Z,23.80
2022-09-25T06:40:45.303Z,22.80
2022-09-25T06:43:16.765Z,24.20
2022-09-25T06:45:44.349Z,22.80
2022-09-25T06:48:16.633Z,23.25
2022-09-25T06:50:50.534Z,23.25
2022-09-25T06:53:20.092Z,22.55
2022-09-25T06:55:47.648Z,23.77
2022-09-25T06:58:18.156Z,21.67
2022-09-25T07:00:49.966Z,20.70
2022-09-25T07:03:39.126Z,24.70
2022-09-25T07:06:08.510Z,20.63
2022-09-25T07:08:36.705Z,17.75
2022-09-25T07:11:04.463Z,21.75
2022-09-25T07:13:35.284Z,20.83
2022-09-25T07:16:06.508Z,21.70
2022-09-25T07:18:34.433Z,19.45
2022-09-25T07:21:03.988Z,18.95
2022-09-25T07:23:31.780Z,18.02
2022-09-25T07:26:09.289Z,18.20
2022-09-25T07:28:38.326Z,17.92
2022-09-25T07:31:16.766Z,17.75
2022-09-25T07:33:44.316Z,17.90
2022-09-25T07:36:12.324Z,17.83
2022-09-25T07:38:40.059Z,16.15
2022-09-25T07:41:10.919Z,17.95
2022-09-25T07:43:39.120Z,17.77
2022-09-25T07:46:07.282Z,21.23
2022-09-25T07:48:34.638Z,19.58
2022-09-25T07:51:06.225Z,17.08
2022-09-25T07:53:33.425Z,15.68
2022-09-25T07:56:06.508Z,14.63
2022-09-25T07:58:35.798Z,16.13
2022-09-25T08:01:05.226Z,14.80
2022-09-25T08:03:32.772Z,14.55
2022-09-25T08:06:05.779Z,15.85
2022-09-25T08:08:34.898Z,14.23
2022-09-25T08:11:07.471Z,14.13
2022-09-25T08:13:35.842Z,15.25
2022-09-25T08:16:04.042Z,16.05
2022-09-25T08:18:32.976Z,15.63
2022-09-25T08:21:06.060Z,14.50
2022-09-25T08:23:33.520Z,15.52
2022-09-25T08:26:02.154Z,16.50
2022-09-25T08:28:30.812Z,14.18
2022-09-25T08:31:00.611Z,15.82
2022-09-25T08:33:28.114Z,14.82
2022-09-25T08:36:00.725Z,15.18
2022-09-25T08:38:29.126Z,14.60
2022-09-25T08:41:24.772Z,13.70
2022-09-25T08:43:52.212Z,13.73
2022-09-25T08:46:44.258Z,15.30
2022-09-25T08:49:14.655Z,13.75
2022-09-25T08:51:44.574Z,12.70
2022-09-25T08:54:26.984Z,14.68
2022-09-25T08:57:04.537Z,15.05
2022-09-25T08:59:38.981Z,13.88
2022-09-25T09:02:20.054Z,13.17
2022-09-25T09:04:53.991Z,15.35
2022-09-25T09:07:39.607Z,15.43
2022-09-25T09:10:34.639Z,13.68
2022-09-25T09:13:39.712Z,13.13
2022-09-25T09:16:30.149Z,12.18
2022-09-25T09:18:58.197Z,11.32
2022-09-25T09:21:32.111Z,13.43
2022-09-25T09:24:06.140Z,12.52
2022-09-25T09:26:55.912Z,9.75
2022-09-25T09:29:42.188Z,11.88
2022-09-25T09:32:40.754Z,11.27
2022-09-25T09:35:31.334Z,11.00
2022-09-25T09:38:30.191Z,10.43
2022-09-25T09:41:23.701Z,9.27
2022-09-25T09:43:58.045Z,9.73
2022-09-25T09:46:41.888Z,9.77
2022-09-25T09:49:35.664Z,8.93
2022-09-25T09:52:19.370Z,10.30
2022-09-25T09:55:24.300Z,10.45
2022-09-25T09:57:54.954Z,8.05
2022-09-25T10:00:24.232Z,9.30
2022-09-25T10:03:33.250Z,9.95
2022-09-25T10:06:05.065Z,7.85
2022-09-25T10:08:32.513Z,8.82
2022-09-25T10:10:59.651Z,7.97
2022-09-25T10:13:37.773Z,8.75
2022-09-25T10:16:18.624Z,8.55
2022-09-25T10:19:20.151Z,9.55
2022-09-25T10:21:54.774Z,8.18
2022-09-25T10:24:53.185Z,8.25
2022-09-25T10:27:38.021Z,8.32
2022-09-25T10:30:11.862Z,7.53
2022-09-25T10:36:46.478Z,8.35
2022-09-25T10:39:44.035Z,7.65
2022-09-25T10:42:33.558Z,5.80
2022-09-25T10:56:41.669Z,6.43
2022-09-25T10:59:24.016Z,6.47
2022-09-25T11:01:55.302Z,6.90
2022-09-25T11:08:33.140Z,7.60
2022-09-25T11:11:02.484Z,7.18
2022-09-25T11:13:50.212Z,6.68
2022-09-25T11:16:17.815Z,7.00
2022-09-25T11:18:50.111Z,5.30
2022-09-25T11:21:53.612Z,6.53
2022-09-25T11:24:26.656Z,6.30
2022-09-25T11:27:12.366Z,6.00
2022-09-25T11:32:34.816Z,6.40
2022-09-25T11:35:25.682Z,7.05
2022-09-25T11:38:06.451Z,6.30
2022-09-25T11:41:12.745Z,6.65
2022-09-25T11:43:57.715Z,5.93
2022-09-25T11:46:44.003Z,5.70
2022-09-25T11:49:24.608Z,5.97
2022-09-25T11:51:56.571Z,5.38
2022-09-25T11:54:52.529Z,7.05
2022-09-25T11:57:34.986Z,5.90
2022-09-25T12:00:08.812Z,7.15
2022-09-25T12:02:41.060Z,7.43
2022-09-25T12:05:14.856Z,7.30
2022-09-25T12:07:53.330Z,8.48
2022-09-25T12:10:59.704Z,6.85
2022-09-25T12:13:58.458Z,6.63
2022-09-25T12:16:33.065Z,7.43
2022-09-25T12:19:25.666Z,6.82
2022-09-25T12:22:06.784Z,9.02
2022-09-25T12:24:49.065Z,8.48
2022-09-25T12:27:48.495Z,7.93
2022-09-25T12:30:25.115Z,8.35
2022-09-25T12:33:22.797Z,7.60
2022-09-25T12:36:16.618Z,8.60
2022-09-25T12:38:55.673Z,14.25
2022-09-25T12:41:51.123Z,7.70
2022-09-25T12:44:42.493Z,7.47
2022-09-25T12:47:43.517Z,7.40
2022-09-25T12:50:29.141Z,6.63
2022-09-25T12:53:00.197Z,6.70
2022-09-25T12:55:34.701Z,7.07
2022-09-25T12:58:21.480Z,6.80
2022-09-25T13:00:56.310Z,6.65
2022-09-25T13:03:46.849Z,5.90
2022-09-25T13:06:31.897Z,5.13
2022-09-25T13:09:17.595Z,4.20
2022-09-25T13:11:51.373Z,3.95
2022-09-25T13:14:47.542Z,3.03
2022-09-25T13:19:43.844Z,2.65
2022-09-25T13:22:22.519Z,2.65
2022-09-25T13:24:57.410Z,2.05
2022-09-25T13:27:26.345Z,1.67
2022-09-25T13:30:01.146Z,2.08
2022-09-25T13:32:35.477Z,2.03
2022-09-25T13:35:06.284Z,2.28
2022-09-25T13:37:44.304Z,2.85
2022-09-25T13:40:58.350Z,3.03
2022-09-25T13:43:29.208Z,3.03
2022-09-25T13:46:18.086Z,3.42
2022-09-25T13:48:46.338Z,3.55
2022-09-25T13:51:22.743Z,4.72
2022-09-25T13:54:03.046Z,3.45
2022-09-25T13:56:51.185Z,5.38
2022-09-25T13:59:23.400Z,4.65
2022-09-25T14:02:52.144Z,4.88
2022-09-25T14:05:27.395Z,4.57
2022-09-25T14:08:02.932Z,5.15
2022-09-25T14:10:30.521Z,5.20
2022-09-25T14:12:57.955Z,4.53
2022-09-25T14:15:37.973Z,5.55
2022-09-25T14:18:11.057Z,5.35
2022-09-25T14:20:47.813Z,7.20
2022-09-25T14:23:48.159Z,6.47
2022-09-25T14:26:22.961Z,6.82
2022-09-25T14:28:51.995Z,5.68
2022-09-25T14:31:37.918Z,5.05
2022-09-25T14:34:30.164Z,4.25
2022-09-25T14:37:37.972Z,3.55
2022-09-25T14:40:41.112Z,2.75
2022-09-25T14:43:20.863Z,2.20
2022-09-25T14:46:11.921Z,3.20
2022-09-25T14:48:48.731Z,2.60
2022-09-25T14:51:41.324Z,2.42
2022-09-25T14:54:15.549Z,3.10
2022-09-25T14:56:48.728Z,3.25
2022-09-25T14:59:32.205Z,2.40
2022-09-25T15:02:03.150Z,2.70
2022-09-25T15:04:32.789Z,2.20
2022-09-25T15:07:09.002Z,2.47
2022-09-25T15:09:42.496Z,2.28
2022-09-25T15:12:24.184Z,1.90
2022-09-25T15:15:18.884Z,1.73
2022-09-25T15:17:54.637Z,2.20
2022-09-25T15:20:25.172Z,2.05
2022-09-25T15:23:15.673Z,3.47
2022-09-25T15:25:49.930Z,1.90
2022-09-25T15:28:26.466Z,1.83
2022-09-25T15:31:01.942Z,1.92
2022-09-25T15:33:32.336Z,1.75
2022-09-25T15:36:08.889Z,2.28
2022-09-25T15:38:39.227Z,1.17
2022-09-25T15:41:16.371Z,1.42
2022-09-25T15:43:44.177Z,1.30
2022-09-25T15:46:11.396Z,1.63
2022-09-25T15:48:59.230Z,1.23
2022-09-25T15:51:33.779Z,1.58
2022-09-25T15:54:05.527Z,1.40
2022-09-25T15:56:55.521Z,1.40
2022-09-25T15:59:37.083Z,1.90
2022-09-25T16:02:37.525Z,2.10
2022-09-25T16:05:09.467Z,1.95
2022-09-25T16:07:39.615Z,2.40
2022-09-25T16:10:09.919Z,1.70
2022-09-25T16:12:48.177Z,2.90
2022-09-25T16:15:27.887Z,2.40
2022-09-25T16:18:05.518Z,2.03
2022-09-25T16:20:41.786Z,2.58
2022-09-25T16:23:28.577Z,2.30
2022-09-25T16:25:56.202Z,2.10
2022-09-25T16:28:28.676Z,2.33
2022-09-25T16:31:06.646Z,2.65
2022-09-25T16:33:49.554Z,2.03
2022-09-25T16:36:19.095Z,1.60
2022-09-25T16:39:12.278Z,1.73
2022-09-25T16:41:51.490Z,2.25
2022-09-25T16:44:23.903Z,2.10
2022-09-25T16:46:57.071Z,2.28
2022-09-25T16:49:25.307Z,1.85
2022-09-25T16:51:55.108Z,2.03
2022-09-25T16:54:28.605Z,1.55
2022-09-25T16:56:57.945Z,1.88
2022-09-25T16:59:28.596Z,1.60
2022-09-25T17:02:05.095Z,1.90
2022-09-25T17:04:36.267Z,1.77
2022-09-25T17:07:03.687Z,2.80
2022-09-25T17:09:31.656Z,1.73
2022-09-25T17:12:08.954Z,1.67
2022-09-25T17:14:37.046Z,2.15
2022-09-25T17:17:04.474Z,1.80
2022-09-25T17:19:31.700Z,1.70
2022-09-25T17:21:59.107Z,2.13
2022-09-25T17:24:27.987Z,2.00
2022-09-25T17:26:55.348Z,1.83
2022-09-25T17:29:23.241Z,2.08
2022-09-25T17:31:50.681Z,1.48
2022-09-25T17:34:29.876Z,1.52
2022-09-25T17:39:52.854Z,1.83
2022-09-25T17:42:20.052Z,2.00
2022-09-25T17:44:49.835Z,1.30
2022-09-25T17:47:17.133Z,1.70
2022-09-25T17:49:44.998Z,2.30
2022-09-25T17:52:17.054Z,1.88
2022-09-25T17:54:47.556Z,1.48
2022-09-25T17:57:17.663Z,2.58
2022-09-25T17:59:45.579Z,1.77
2022-09-25T18:02:19.810Z,2.55
2022-09-25T18:04:47.488Z,1.77
2022-09-25T18:07:15.497Z,1.63
2022-09-25T18:09:43.096Z,1.73
2022-09-25T18:12:10.860Z,2.30
2022-09-25T18:14:39.497Z,1.70
2022-09-25T18:17:07.731Z,2.00
2022-09-25T18:19:54.245Z,2.13
2022-09-25T18:26:31.057Z,1.58
2022-09-25T18:32:50.204Z,1.88
2022-09-25T18:39:01.414Z,2.53
2022-09-25T18:45:22.323Z,2.10
2022-09-25T18:51:56.410Z,2.53
2022-09-25T19:47:20.631Z,3.22
2022-09-25T19:49:47.902Z,3.63
2022-09-25T19:52:15.136Z,2.10
2022-09-25T19:54:42.480Z,2.42
2022-09-25T19:57:10.014Z,2.05
2022-09-25T19:59:37.929Z,1.73
2022-09-25T20:02:06.146Z,1.90
2022-09-25T20:04:34.757Z,2.33
2022-09-25T20:07:01.994Z,1.77
2022-09-25T20:09:29.412Z,2.15
2022-09-25T20:11:56.757Z,2.20
2022-09-25T20:14:27.412Z,2.53
2022-09-25T20:16:56.117Z,2.17
2022-09-25T20:19:23.409Z,2.45
2022-09-25T20:21:53.306Z,1.98
2022-09-25T20:24:20.679Z,2.17
2022-09-25T20:26:48.259Z,1.83
2022-09-25T20:29:17.386Z,2.70
2022-09-25T20:31:46.134Z,3.22
2022-09-25T20:34:18.970Z,3.15
2022-09-25T20:36:49.359Z,1.95
2022-09-25T20:39:20.770Z,1.95
2022-09-25T20:41:49.864Z,2.38
2022-09-25T20:44:17.439Z,2.15
2022-09-25T20:46:45.197Z,2.92
2022-09-25T20:49:13.574Z,2.15
2022-09-25T20:51:41.655Z,2.30
2022-09-25T20:54:10.187Z,1.80
2022-09-25T20:56:45.761Z,1.98
2022-09-25T20:59:15.569Z,2.67
2022-09-25T21:01:42.989Z,1.75
2022-09-25T21:04:10.499Z,1.92
2022-09-25T21:06:40.539Z,2.10
2022-09-25T21:09:18.765Z,2.45
2022-09-25T21:11:45.897Z,2.58
2022-09-25T21:14:19.817Z,2.65
2022-09-25T21:16:48.159Z,3.55
2022-09-25T21:19:17.156Z,3.40
2022-09-25T21:21:45.016Z,3.33
2022-09-25T21:24:17.502Z,2.47
2022-09-25T21:26:45.605Z,2.13
2022-09-25T21:29:16.109Z,2.90
2022-09-25T21:31:49.413Z,2.65
2022-09-25T21:34:17.162Z,4.45
2022-09-25T21:36:44.738Z,2.30
2022-09-25T21:39:13.558Z,2.10
2022-09-25T21:41:40.759Z,1.90
2022-09-25T21:44:13.501Z,2.42
2022-09-25T21:46:41.598Z,2.60
2022-09-25T21:49:14.269Z,2.85
2022-09-25T21:51:43.589Z,2.20
2022-09-25T21:54:12.332Z,2.92
2022-09-25T21:56:39.898Z,5.32
2022-09-25T21:59:09.075Z,2.80
2022-09-25T22:01:39.813Z,2.65
2022-09-25T22:04:08.815Z,2.85
2022-09-25T22:06:39.439Z,2.92
2022-09-25T22:09:14.186Z,2.50
2022-09-25T22:11:42.809Z,3.58
2022-09-25T22:14:14.913Z,2.42
2022-09-25T22:16:44.660Z,2.42
2022-09-25T22:19:24.987Z,2.33
2022-09-25T22:21:54.058Z,1.50
2022-09-25T22:24:22.914Z,0.98
2022-09-25T22:26:51.894Z,0.60
2022-09-25T22:29:21.067Z,0.82
2022-09-25T22:31:49.065Z,0.80
2022-09-25T22:34:28.281Z,1.83
2022-09-25T22:36:59.898Z,1.15
2022-09-25T22:39:28.525Z,1.75
2022-09-25T22:41:57.273Z,1.50
2022-09-25T22:44:25.125Z,1.42
2022-09-25T22:46:52.528Z,2.03
2022-09-25T22:49:20.052Z,1.75
2022-09-25T22:51:47.660Z,2.20
2022-09-25T22:54:15.696Z,1.92
2022-09-25T22:56:43.508Z,1.00
2022-09-25T22:59:13.943Z,1.60
2022-09-25T23:01:52.335Z,1.95
2022-09-25T23:04:22.383Z,2.50
2022-09-25T23:06:52.337Z,2.40
2022-09-25T23:09:26.101Z,2.50
2022-09-25T23:11:55.658Z,2.53
2022-09-25T23:14:26.245Z,3.47
2022-09-25T23:16:54.556Z,3.17
2022-09-25T23:19:23.291Z,1.60
2022-09-25T23:21:52.842Z,1.65
2022-09-25T23:24:21.185Z,1.25
2022-09-25T23:26:48.819Z,1.60
2022-09-25T23:29:18.376Z,3.15
2022-09-25T23:31:47.315Z,2.08
2022-09-25T23:34:15.514Z,2.40
2022-09-25T23:36:43.391Z,1.88
2022-09-25T23:39:16.114Z,1.98
2022-09-25T23:41:43.575Z,1.42
2022-09-25T23:44:11.836Z,1.65
2022-09-25T23:46:41.960Z,1.83
2022-09-25T23:49:09.786Z,1.63
2022-09-25T23:51:37.521Z,1.70
2022-09-25T23:54:04.995Z,2.33
2022-09-25T23:56:34.366Z,1.70
2022-09-25T23:59:03.136Z,2.30
